Airfield :
LOGIN :

Register | Disclaimer

   EN    FR    IT 

 










Legend :    VFR   Marginal VFR   IFR   Intensive IFR   Very Intensive IFR
Visi :
Ceiling :
>= 8 km
>= 3000ft
5 to 8 km
1000 to 3000 ft
1500m to 5 km
500 to 1000 ft
800 to 1500m
200 to 500 ft
< 800m
< 200 ft
Symbols :   Thunderstorms  Fog  Heavy snow  Heavy precipitations  Wind > 20 kt
SIGMETs :     Misc.  Thunderstorms  Icing  Turbulence  Mountain Waves  Volcanic Ashes






- Airport Elevation : 74 ft
- IATA code : LRH


LFBH - La Rochelle Ile de Ré

CURRENT METAR :
  • 152030Z AUTO 17008KT 9999 FEW034/// OVC041/// ///TCU 10/09 Q1007 BECMG OVC050

EXPIRED METARs :
  • 152000Z AUTO 17009KT 9999 OVC046 10/08 Q1007 NOSIG
  • 151930Z AUTO 18008KT 9999 OVC048 10/09 Q1007 NOSIG
  • 151900Z AUTO 18010KT 9999 OVC049 10/08 Q1007 NOSIG
  • 151830Z AUTO 18009KT CAVOK 10/08 Q1007 NOSIG
  • 151800Z AUTO 18008KT 9999 DZ OVC047/// ///TCU 10/08 Q1007 BECMG NSW OVC050

TAF TAF LFBH
Valid from the 15 at 18:00 until the 16 at 18:00 UTC


151700Z 1518/1618 18010KT 9999 -RA OVC050
BECMG 1602/1604 12005KT
TEMPO 1602/1608 4000 RA OVC005
FM160800 14010KT CAVOK
ATIS : +33 5 46 00 13 92



MET'MAP, your aeronautical weather chart ! - Copyright ORBIFLY December 2007 - Disclaimer

ORBIFLY MET'MAP TEAM :

Programming & Development : Alexandra Zaïnal
Concept & original design : Baudouin d'Aumeries
Assistance for programming : Marc-Olivier Méhu
Technical & hardware support : Manuel Goepfert

Contact : metmap@orbifly.com




SOURCES & CREDITS :

   NOAA